createdAt,value
2023-04-18T00:04:41.372Z,6.07
2023-04-18T00:09:48.842Z,6.36
2023-04-18T00:14:56.888Z,5.61
2023-04-18T00:20:04.660Z,5.37
2023-04-18T00:25:12.312Z,5.33
2023-04-18T00:30:19.680Z,6.67
2023-04-18T00:35:27.809Z,4.86
2023-04-18T00:40:35.539Z,5.08
2023-04-18T00:45:43.482Z,5.47
2023-04-18T00:50:51.063Z,5.87
2023-04-18T00:55:58.947Z,5.27
2023-04-18T01:01:06.563Z,6.01
2023-04-18T01:06:14.280Z,4.49
2023-04-18T01:11:21.696Z,4.95
2023-04-18T01:16:29.984Z,4.32
2023-04-18T01:21:37.752Z,4.50
2023-04-18T01:26:45.816Z,5.49
2023-04-18T01:31:53.388Z,3.97
2023-04-18T01:37:01.312Z,5.61
2023-04-18T01:42:08.873Z,5.03
2023-04-18T01:47:16.831Z,3.81
2023-04-18T01:52:24.339Z,3.85
2023-04-18T01:57:32.025Z,4.82
2023-04-18T02:02:39.694Z,4.16
2023-04-18T02:07:47.272Z,4.58
2023-04-18T02:12:55.117Z,5.13
2023-04-18T02:18:03.298Z,4.00
2023-04-18T02:23:11.081Z,3.55
2023-04-18T02:28:19.276Z,4.05
2023-04-18T02:33:26.886Z,3.56
2023-04-18T02:38:35.008Z,3.44
2023-04-18T02:43:42.399Z,4.21
2023-04-18T02:48:50.374Z,2.97
2023-04-18T02:53:57.746Z,3.72
2023-04-18T02:59:05.686Z,3.70
2023-04-18T03:04:13.688Z,3.84
2023-04-18T03:09:20.735Z,3.50
2023-04-18T03:14:28.244Z,3.30
2023-04-18T03:19:36.237Z,3.16
2023-04-18T03:24:43.822Z,3.21
2023-04-18T03:29:51.597Z,3.62
2023-04-18T03:34:59.624Z,3.12
2023-04-18T03:40:07.409Z,2.98
2023-04-18T03:45:14.790Z,3.29
2023-04-18T03:50:22.707Z,3.21
2023-04-18T03:55:30.309Z,3.21
2023-04-18T04:00:38.553Z,3.06
2023-04-18T04:05:46.115Z,3.38
2023-04-18T04:10:54.012Z,3.39
2023-04-18T04:16:01.406Z,2.87
2023-04-18T04:21:09.167Z,3.16
2023-04-18T04:26:16.837Z,3.00
2023-04-18T04:31:24.817Z,3.00
2023-04-18T04:36:32.135Z,2.67
2023-04-18T04:41:40.203Z,2.97
2023-04-18T04:46:47.660Z,3.16
2023-04-18T04:51:55.657Z,2.43
2023-04-18T04:57:03.394Z,2.85
2023-04-18T05:02:11.449Z,3.28
2023-04-18T05:07:19.009Z,2.59
2023-04-18T05:12:26.884Z,3.21
2023-04-18T05:17:34.513Z,3.16
2023-04-18T05:22:42.300Z,2.70
2023-04-18T05:27:49.916Z,2.47
2023-04-18T05:32:58.100Z,3.40
2023-04-18T05:38:05.790Z,54.59
2023-04-18T05:43:14.157Z,42.67
2023-04-18T05:48:21.838Z,39.72
2023-04-18T05:53:30.175Z,33.38
2023-04-18T05:58:37.791Z,31.46
2023-04-18T06:03:46.148Z,29.54
2023-04-18T06:08:53.630Z,25.86
2023-04-18T06:14:01.608Z,23.59
2023-04-18T06:19:09.259Z,24.16
2023-04-18T06:24:17.245Z,20.88
2023-04-18T06:29:24.536Z,18.66
2023-04-18T06:34:32.370Z,19.20
2023-04-18T06:39:39.739Z,17.37
2023-04-18T06:44:47.562Z,16.30
2023-04-18T06:49:55.352Z,15.68
2023-04-18T06:55:03.289Z,15.07
2023-04-18T07:00:10.677Z,14.86
2023-04-18T07:05:18.675Z,14.30
2023-04-18T07:10:26.209Z,14.33
2023-04-18T07:15:34.125Z,14.69
2023-04-18T07:20:41.497Z,14.13
2023-04-18T07:25:49.077Z,12.50
2023-04-18T07:30:57.134Z,12.34
2023-04-18T07:36:05.051Z,12.70
2023-04-18T07:41:12.668Z,12.06
2023-04-18T07:46:20.510Z,10.26
2023-04-18T07:51:27.840Z,9.12
2023-04-18T07:56:35.579Z,9.79
2023-04-18T08:01:43.252Z,9.62
2023-04-18T08:06:51.361Z,10.76
2023-04-18T08:11:58.808Z,8.15
2023-04-18T08:17:06.856Z,9.97
2023-04-18T08:22:14.759Z,9.82
2023-04-18T08:27:22.547Z,8.44
2023-04-18T08:32:30.202Z,7.92
2023-04-18T08:37:38.014Z,9.17
2023-04-18T08:42:45.930Z,8.80
2023-04-18T08:47:53.836Z,8.11
2023-04-18T08:53:01.581Z,8.00
2023-04-18T08:58:09.737Z,8.26
2023-04-18T09:03:17.357Z,7.90
2023-04-18T09:08:25.387Z,6.68
2023-04-18T09:13:34.000Z,9.19
2023-04-18T09:18:41.931Z,7.77
2023-04-18T09:23:49.469Z,6.57
2023-04-18T09:28:57.806Z,6.46
2023-04-18T09:34:05.286Z,6.07
2023-04-18T09:39:13.228Z,7.78
2023-04-18T09:44:20.358Z,6.52
2023-04-18T09:49:27.422Z,6.61
2023-04-18T09:54:34.821Z,6.87
2023-04-18T09:59:42.735Z,5.90
2023-04-18T10:04:50.150Z,6.52
2023-04-18T10:09:58.130Z,6.65
2023-04-18T10:15:05.915Z,7.02
2023-04-18T10:20:14.038Z,5.37
2023-04-18T10:25:21.814Z,6.17
2023-04-18T10:30:30.268Z,5.31
2023-04-18T10:35:39.247Z,7.02
2023-04-18T10:40:45.523Z,6.28
2023-04-18T10:45:53.154Z,5.70
2023-04-18T10:51:01.193Z,5.30
2023-04-18T10:56:08.768Z,5.01
2023-04-18T11:01:16.628Z,5.26
2023-04-18T11:06:24.184Z,5.42
2023-04-18T11:11:32.287Z,5.44
2023-04-18T11:16:40.008Z,4.60
2023-04-18T11:21:47.861Z,4.79
2023-04-18T11:26:55.207Z,5.46
2023-04-18T11:32:03.245Z,4.64
2023-04-18T11:37:10.646Z,5.27
2023-04-18T11:42:19.005Z,4.93
2023-04-18T11:47:26.591Z,4.54
2023-04-18T11:52:34.503Z,4.08
2023-04-18T11:57:41.964Z,4.91
2023-04-18T12:02:49.843Z,4.30
2023-04-18T12:07:57.098Z,4.12
2023-04-18T12:13:04.926Z,5.08
2023-04-18T12:18:12.548Z,5.43
2023-04-18T12:23:20.198Z,3.72
2023-04-18T12:28:27.767Z,4.65
2023-04-18T12:33:35.654Z,4.44
2023-04-18T12:38:43.527Z,4.30
2023-04-18T12:43:51.386Z,3.65
2023-04-18T12:48:58.782Z,3.83
2023-04-18T12:54:07.059Z,3.66
2023-04-18T12:59:15.107Z,3.39
2023-04-18T13:04:23.241Z,4.38
2023-04-18T13:09:30.610Z,3.67
2023-04-18T13:14:38.703Z,3.78
2023-04-18T13:24:46.944Z,4.51
2023-04-18T13:29:54.478Z,3.17
2023-04-18T13:35:02.297Z,3.79
2023-04-18T13:40:10.006Z,3.78
2023-04-18T13:45:17.862Z,3.74
2023-04-18T13:50:25.442Z,3.68
2023-04-18T13:55:33.457Z,3.48
2023-04-18T14:00:41.052Z,3.27
2023-04-18T14:05:49.289Z,3.58
2023-04-18T14:10:57.060Z,2.91
2023-04-18T14:16:04.939Z,3.52
2023-04-18T14:21:12.502Z,3.68
2023-04-18T14:26:20.587Z,2.88
2023-04-18T14:31:28.299Z,3.39
2023-04-18T14:36:35.869Z,3.98
2023-04-18T14:41:43.616Z,3.08
2023-04-18T14:46:51.783Z,3.09
2023-04-18T14:51:59.090Z,3.43
2023-04-18T14:57:06.928Z,2.84
2023-04-18T15:02:15.022Z,2.95
2023-04-18T15:07:23.195Z,2.72
2023-04-18T15:12:30.585Z,3.25
2023-04-18T15:17:38.897Z,3.06
2023-04-18T15:22:46.321Z,2.99
2023-04-18T15:27:54.290Z,2.75
2023-04-18T15:33:01.912Z,2.85
2023-04-18T15:38:09.913Z,2.65
2023-04-18T15:43:17.535Z,3.33
2023-04-18T15:48:25.474Z,2.62
2023-04-18T15:53:32.872Z,2.65
2023-04-18T15:58:40.791Z,2.61
2023-04-18T16:03:48.717Z,2.63
2023-04-18T16:08:56.814Z,2.56
2023-04-18T16:14:04.195Z,2.39
2023-04-18T16:19:12.329Z,2.44
2023-04-18T16:24:19.817Z,3.46
2023-04-18T16:29:27.846Z,3.15
2023-04-18T16:34:35.505Z,3.99
2023-04-18T16:39:43.324Z,3.02
2023-04-18T16:44:50.689Z,3.88
2023-04-18T16:49:58.695Z,2.67
2023-04-18T16:55:06.586Z,3.47
2023-04-18T17:00:14.640Z,2.61
2023-04-18T17:05:22.188Z,3.15
2023-04-18T17:10:30.329Z,3.11
2023-04-18T17:15:37.962Z,3.31
2023-04-18T17:20:45.956Z,3.02
2023-04-18T17:25:53.343Z,3.30
2023-04-18T17:31:01.472Z,3.31
2023-04-18T17:36:09.159Z,3.25
2023-04-18T17:41:17.175Z,3.90
2023-04-18T17:46:24.823Z,3.53
2023-04-18T17:51:32.758Z,2.96
2023-04-18T17:56:40.333Z,2.95
2023-04-18T18:01:48.263Z,3.14
2023-04-18T18:06:55.549Z,3.26
2023-04-18T18:12:03.757Z,3.13
2023-04-18T18:17:11.758Z,3.03
2023-04-18T18:22:19.349Z,3.33
2023-04-18T18:27:26.858Z,3.11
2023-04-18T18:32:34.863Z,3.03
2023-04-18T18:37:42.446Z,4.08
2023-04-18T18:42:50.260Z,15.81
2023-04-18T18:47:58.666Z,29.19
2023-04-18T18:53:06.297Z,28.10
2023-04-18T18:58:13.894Z,27.19
2023-04-18T19:03:22.033Z,29.45
2023-04-18T19:08:29.455Z,27.00
2023-04-18T19:13:37.658Z,22.09
2023-04-18T19:18:45.402Z,21.34
2023-04-18T19:23:53.273Z,19.89
2023-04-18T19:29:01.062Z,17.41
2023-04-18T19:34:09.126Z,15.88
2023-04-18T19:39:16.816Z,12.73
2023-04-18T19:44:24.802Z,12.19
2023-04-18T19:49:32.303Z,11.19
2023-04-18T19:54:40.223Z,10.19
2023-04-18T19:59:48.100Z,10.56
2023-04-18T20:04:55.922Z,9.13
2023-04-18T20:10:03.392Z,8.84
2023-04-18T20:15:11.486Z,8.16
2023-04-18T20:20:19.092Z,6.44
2023-04-18T20:25:26.977Z,5.94
2023-04-18T20:30:34.940Z,6.00
2023-04-18T20:35:42.759Z,6.91
2023-04-18T20:40:50.566Z,5.79
2023-04-18T20:45:58.759Z,5.93
2023-04-18T20:51:06.067Z,6.08
2023-04-18T20:56:14.341Z,5.70
2023-04-18T21:01:22.018Z,5.09
2023-04-18T21:06:29.976Z,5.22
2023-04-18T21:11:37.401Z,4.55
2023-04-18T21:16:45.392Z,4.90
2023-04-18T21:21:52.912Z,4.72
2023-04-18T21:27:01.118Z,4.75
2023-04-18T21:32:08.697Z,4.42
2023-04-18T21:37:16.810Z,4.57
2023-04-18T21:42:24.410Z,4.45
2023-04-18T21:47:32.437Z,4.41
2023-04-18T21:52:40.015Z,4.00
2023-04-18T21:57:47.842Z,4.27
2023-04-18T22:02:55.661Z,4.05
2023-04-18T22:08:03.178Z,4.06
2023-04-18T22:13:10.923Z,3.99
2023-04-18T22:18:18.835Z,3.82
2023-04-18T22:23:26.401Z,3.56
2023-04-18T22:28:34.072Z,4.18
2023-04-18T22:33:41.715Z,3.98
2023-04-18T22:38:50.091Z,3.50
2023-04-18T22:43:57.822Z,4.08
2023-04-18T22:49:05.685Z,4.04
2023-04-18T22:54:13.490Z,4.45
2023-04-18T22:59:21.443Z,3.48
2023-04-18T23:04:29.090Z,3.91
2023-04-18T23:09:37.256Z,3.70
2023-04-18T23:14:44.829Z,4.13
2023-04-18T23:19:52.897Z,3.27
2023-04-18T23:25:00.300Z,3.60
2023-04-18T23:30:08.229Z,3.48
2023-04-18T23:35:15.835Z,3.45
2023-04-18T23:40:24.051Z,4.22
2023-04-18T23:45:31.599Z,3.80
2023-04-18T23:50:39.554Z,3.47
2023-04-18T23:55:48.332Z,3.22
